Time;durP1;ratioP1;P1;durP2;ratioP2;P2;SDS_P1;SDS_P2;PMS_P1;PMS_P2;Temp;Humidity;BMP_temperature;BMP_pressure;BME280_temperature;BME280_humidity;BME280_pressure;Samples;Min_cycle;Max_cycle;Signal;HPM_P1;HPM_P2
2022/04/14 00:01:16;;;;;;;9.60;5.13;;;14.30;99.90;;;;;;4976611;28;20034;-88
2022/04/14 00:03:45;;;;;;;21.80;5.13;;;14.40;99.90;;;;;;4977977;28;20027;-88
2022/04/14 00:06:15;;;;;;;12.73;5.53;;;14.40;99.90;;;;;;4976687;28;20038;-88
2022/04/14 00:08:41;;;;;;;11.73;5.75;;;14.50;99.90;;;;;;4977668;28;20153;-88
2022/04/14 00:11:07;;;;;;;13.57;6.68;;;14.50;99.90;;;;;;4974063;28;20081;-90
2022/04/14 00:13:34;;;;;;;15.73;6.43;;;14.40;99.90;;;;;;4959721;28;20034;-91
2022/04/14 00:15:59;;;;;;;15.85;7.20;;;14.50;99.90;;;;;;4959748;28;20023;-90
2022/04/14 00:18:27;;;;;;;16.73;7.43;;;14.40;99.90;;;;;;4976202;28;20499;-90
2022/04/14 00:20:53;;;;;;;14.10;6.78;;;14.40;99.90;;;;;;4959120;28;20044;-89
2022/04/14 00:23:19;;;;;;;13.02;5.43;;;14.40;99.90;;;;;;4959330;28;20107;-90
2022/04/14 00:25:44;;;;;;;15.25;5.05;;;14.40;99.90;;;;;;4959142;28;20027;-88
2022/04/14 00:28:10;;;;;;;16.10;6.05;;;14.40;99.90;;;;;;4958834;28;20479;-87
2022/04/14 00:30:36;;;;;;;21.33;7.38;;;14.40;99.90;;;;;;4960397;28;20078;-88
2022/04/14 00:33:01;;;;;;;15.30;5.82;;;14.40;99.90;;;;;;4976894;28;20467;-89
2022/04/14 00:35:30;;;;;;;18.92;5.28;;;14.40;99.90;;;;;;4976461;28;20027;-89
2022/04/14 00:37:56;;;;;;;12.05;5.38;;;14.30;99.90;;;;;;4958673;28;20038;-88
2022/04/14 00:40:21;;;;;;;14.85;5.78;;;14.30;99.90;;;;;;4975849;28;20027;-88
2022/04/14 00:42:47;;;;;;;14.88;5.68;;;14.20;99.90;;;;;;4976310;28;20031;-88
2022/04/14 00:45:14;;;;;;;11.57;5.03;;;14.10;99.90;;;;;;4958983;28;20685;-88
2022/04/14 00:47:40;;;;;;;11.30;7.25;;;14.00;99.90;;;;;;4976136;28;20102;-87
2022/04/14 00:50:06;;;;;;;14.77;7.00;;;13.80;99.90;;;;;;4975910;28;20559;-90
2022/04/14 00:52:31;;;;;;;14.98;8.27;;;13.90;99.90;;;;;;4958896;28;20041;-90
2022/04/14 00:54:57;;;;;;;15.60;5.80;;;13.90;99.90;;;;;;4959152;28;20054;-90
2022/04/14 00:57:23;;;;;;;19.77;6.75;;;13.90;99.90;;;;;;4958339;28;20027;-90
2022/04/14 00:59:49;;;;;;;15.05;5.53;;;14.00;99.90;;;;;;4975902;28;20572;-90
2022/04/14 01:02:15;;;;;;;15.65;5.78;;;14.00;99.90;;;;;;4967248;28;20074;-88
2022/04/14 01:04:58;;;;;;;18.00;5.43;;;14.00;99.90;;;;;;4977872;28;20026;-90
2022/04/14 01:07:29;;;;;;;16.88;6.25;;;14.00;99.90;;;;;;4977477;28;20022;-90
2022/04/14 01:09:55;;;;;;;;;;;14.00;99.90;;;;;;4995826;28;20070;-90
2022/04/14 01:12:21;;;;;;;17.02;7.53;;;14.10;99.90;;;;;;4980630;28;19917;-90
2022/04/14 01:14:47;;;;;;;22.88;6.03;;;14.10;99.90;;;;;;4958172;28;20114;-90
2022/04/14 01:17:21;;;;;;;24.77;7.45;;;14.10;99.90;;;;;;4958114;28;20114;-89
2022/04/14 01:19:47;;;;;;;13.45;5.85;;;14.10;99.90;;;;;;4960023;28;20031;-90
2022/04/14 01:22:24;;;;;;;13.32;5.43;;;14.10;99.90;;;;;;4957924;28;20043;-90
2022/04/14 01:24:55;;;;;;;17.90;5.82;;;14.00;99.90;;;;;;4975528;28;20459;-90
2022/04/14 01:27:21;;;;;;;17.90;8.30;;;14.00;99.90;;;;;;4975190;28;20046;-88
2022/04/14 01:29:47;;;;;;;16.85;10.20;;;14.00;99.90;;;;;;4958174;28;20101;-89
2022/04/14 01:32:12;;;;;;;11.82;5.78;;;14.00;99.90;;;;;;4975299;28;20502;-89
2022/04/14 01:34:38;;;;;;;21.58;8.57;;;14.00;99.90;;;;;;4975324;28;20034;-89
2022/04/14 01:37:04;;;;;;;20.10;8.27;;;14.00;99.90;;;;;;4957869;28;20027;-87
2022/04/14 01:39:30;;;;;;;13.68;5.70;;;13.90;99.90;;;;;;4975644;28;20447;-89
2022/04/14 01:41:55;;;;;;;13.75;5.80;;;13.90;99.90;;;;;;4975244;28;20037;-89
2022/04/14 01:44:21;;;;;;;17.67;6.72;;;13.70;99.90;;;;;;4975452;28;20034;-89
2022/04/14 01:46:47;;;;;;;16.30;6.32;;;13.70;99.90;;;;;;4958107;28;20031;-89
2022/04/14 01:49:13;;;;;;;18.50;6.40;;;13.60;99.90;;;;;;4938666;29;20407;-88
2022/04/14 01:51:39;;;;;;;17.27;7.70;;;13.60;99.90;;;;;;4938679;29;20031;-88
2022/04/14 01:54:06;;;;;;;20.88;6.88;;;13.50;99.90;;;;;;4956432;29;20028;-88
2022/04/14 01:56:32;;;;;;;14.48;8.70;;;13.60;99.90;;;;;;4944515;28;20034;-89
2022/04/14 01:58:58;;;;;;;20.13;7.90;;;13.60;99.90;;;;;;4975621;28;20027;-89
2022/04/14 02:01:23;;;;;;;18.63;7.78;;;13.60;99.90;;;;;;4974971;28;20031;-89
2022/04/14 02:03:50;;;;;;;18.20;8.90;;;13.50;99.90;;;;;;4957687;28;20035;-88
2022/04/14 02:06:16;;;;;;;13.30;6.53;;;13.50;99.90;;;;;;4975380;28;20019;-89
2022/04/14 02:08:43;;;;;;;22.08;10.68;;;13.50;99.90;;;;;;4975186;28;20023;-89
2022/04/14 02:11:10;;;;;;;20.42;10.55;;;13.50;99.90;;;;;;4974992;28;20503;-88
2022/04/14 02:13:36;;;;;;;22.77;11.63;;;13.50;99.90;;;;;;4975223;28;20019;-89
2022/04/14 02:16:03;;;;;;;21.17;9.85;;;13.50;99.90;;;;;;4975162;28;20023;-89
2022/04/14 02:18:28;;;;;;;13.60;7.00;;;13.50;99.90;;;;;;4965350;28;20387;-88
2022/04/14 02:20:54;;;;;;;17.70;7.63;;;13.50;99.90;;;;;;4973635;28;20030;-89
2022/04/14 02:23:19;;;;;;;17.73;9.15;;;13.50;99.90;;;;;;4982449;28;20027;-89
2022/04/14 02:25:45;;;;;;;24.55;8.48;;;13.40;99.90;;;;;;4986312;28;20046;-88
2022/04/14 02:28:11;;;;;;;21.52;7.72;;;13.30;99.90;;;;;;4974153;28;20034;-87
2022/04/14 02:30:37;;;;;;;15.85;7.22;;;13.30;99.90;;;;;;4973461;28;20395;-88
2022/04/14 02:33:03;;;;;;;24.23;10.43;;;13.30;99.90;;;;;;4974288;28;20030;-88
2022/04/14 02:35:29;;;;;;;16.33;8.05;;;13.20;99.90;;;;;;4974636;28;20098;-89
2022/04/14 02:37:57;;;;;;;27.35;12.02;;;13.20;99.90;;;;;;4972639;28;20554;-88
2022/04/14 02:40:24;;;;;;;18.23;8.70;;;13.10;99.90;;;;;;4972980;28;20027;-88
2022/04/14 02:42:59;;;;;;;19.45;8.05;;;13.20;99.90;;;;;;4974291;28;20049;-87
2022/04/14 02:45:26;;;;;;;15.10;8.38;;;13.10;99.90;;;;;;4972921;28;20038;-89
2022/04/14 02:47:53;;;;;;;20.35;6.95;;;13.10;99.90;;;;;;4974078;28;20034;-89
2022/04/14 02:50:20;;;;;;;15.45;7.38;;;13.00;99.90;;;;;;4972717;28;20029;-89
2022/04/14 02:52:47;;;;;;;15.38;6.72;;;12.90;99.90;;;;;;4972948;28;20543;-88
2022/04/14 02:55:13;;;;;;;18.77;6.50;;;12.90;99.90;;;;;;4972956;28;20415;-89
2022/04/14 02:57:39;;;;;;;16.05;7.95;;;12.80;99.90;;;;;;4960490;28;20031;-90
2022/04/14 03:00:09;;;;;;;18.70;6.20;;;12.70;99.90;;;;;;4973654;28;20475;-88
2022/04/14 03:02:35;;;;;;;15.18;5.78;;;12.60;99.90;;;;;;4974010;28;20038;-90
2022/04/14 03:05:02;;;;;;;10.98;5.00;;;12.40;99.90;;;;;;4956601;28;20101;-87
2022/04/14 03:07:28;;;;;;;12.68;5.43;;;12.30;99.90;;;;;;4956329;28;20027;-87
2022/04/14 03:09:54;;;;;;;14.82;5.22;;;12.40;99.90;;;;;;4973769;28;20403;-88
2022/04/14 03:12:19;;;;;;;15.57;5.53;;;12.40;99.90;;;;;;4956315;28;20038;-89
2022/04/14 03:14:47;;;;;;;18.50;6.30;;;12.40;99.90;;;;;;4973843;28;20035;-89
2022/04/14 03:17:12;;;;;;;16.10;7.85;;;12.40;99.90;;;;;;4956116;28;20031;-89
2022/04/14 03:19:38;;;;;;;15.68;7.53;;;12.40;99.90;;;;;;4973511;28;20037;-89
2022/04/14 03:22:04;;;;;;;14.77;8.25;;;12.50;99.90;;;;;;4973842;28;20142;-88
2022/04/14 03:24:29;;;;;;;14.95;7.07;;;12.50;99.90;;;;;;4973717;28;20479;-88
2022/04/14 03:26:55;;;;;;;15.63;8.43;;;12.40;99.90;;;;;;4973829;28;20018;-89
2022/04/14 03:29:20;;;;;;;15.55;8.27;;;12.40;99.90;;;;;;4972645;28;20026;-88
2022/04/14 03:31:46;;;;;;;16.88;8.45;;;12.20;99.90;;;;;;4972026;28;20475;-88
2022/04/14 03:34:12;;;;;;;21.25;9.05;;;12.10;99.90;;;;;;4973189;28;20054;-89
2022/04/14 03:36:37;;;;;;;26.30;10.95;;;12.10;99.90;;;;;;4971807;28;20126;-87
2022/04/14 03:39:04;;;;;;;19.83;11.52;;;12.20;99.90;;;;;;4973274;28;20066;-88
2022/04/14 03:41:29;;;;;;;27.13;14.18;;;12.20;99.90;;;;;;4972073;28;20407;-88
2022/04/14 03:43:55;;;;;;;31.20;14.27;;;12.30;99.90;;;;;;4973772;28;20027;-88
2022/04/14 03:46:21;;;;;;;30.05;16.58;;;12.40;99.90;;;;;;4972002;28;20042;-89
2022/04/14 03:48:47;;;;;;;34.20;18.17;;;12.40;99.90;;;;;;4996908;23;20081;-87
2022/04/14 03:51:14;;;;;;;29.77;17.48;;;12.40;99.90;;;;;;4968281;28;20057;-87
2022/04/14 03:53:41;;;;;;;22.92;14.27;;;12.40;99.90;;;;;;4973097;28;20340;-87
2022/04/14 03:56:07;;;;;;;19.80;13.82;;;12.30;99.90;;;;;;4972911;28;20038;-87
2022/04/14 03:58:32;;;;;;;21.58;12.40;;;12.10;99.90;;;;;;4973039;28;20170;-87
2022/04/14 04:00:58;;;;;;;23.48;11.68;;;12.00;99.90;;;;;;4972842;28;20077;-87
2022/04/14 04:03:23;;;;;;;24.08;10.95;;;12.00;99.90;;;;;;4973150;28;20090;-85
2022/04/14 04:05:49;;;;;;;21.55;13.35;;;12.00;99.90;;;;;;4971970;28;20118;-86
2022/04/14 04:08:15;;;;;;;30.67;17.00;;;12.10;99.90;;;;;;4973033;28;20023;-88
2022/04/14 04:10:40;;;;;;;34.60;16.83;;;12.00;99.90;;;;;;4972746;28;20030;-89
2022/04/14 04:13:06;;;;;;;26.90;15.65;;;12.10;99.90;;;;;;4971805;28;20044;-85
2022/04/14 04:15:31;;;;;;;33.22;17.52;;;12.20;99.90;;;;;;4971659;28;20091;-88
2022/04/14 04:17:57;;;;;;;22.58;15.60;;;12.20;99.90;;;;;;4972506;28;20066;-87
2022/04/14 04:20:23;;;;;;;33.30;17.73;;;12.10;99.90;;;;;;4972953;28;20050;-87
2022/04/14 04:22:48;;;;;;;31.80;16.08;;;12.00;99.90;;;;;;4972870;28;20037;-87
2022/04/14 04:25:14;;;;;;;29.27;17.85;;;12.10;99.90;;;;;;4975969;28;20035;-88
2022/04/14 04:27:40;;;;;;;31.17;16.50;;;12.10;99.90;;;;;;4972534;28;20027;-88
2022/04/14 04:30:07;;;;;;;35.35;21.33;;;12.10;99.90;;;;;;4972721;28;20469;-87
2022/04/14 04:32:33;;;;;;;34.25;17.02;;;12.00;99.90;;;;;;4971475;28;20041;-85
2022/04/14 04:35:08;;;;;;;31.65;18.58;;;12.00;99.90;;;;;;4972984;28;20038;-87
2022/04/14 04:37:34;;;;;;;37.72;21.50;;;11.90;99.90;;;;;;4971610;28;20114;-88
2022/04/14 04:40:00;;;;;;;34.95;20.77;;;11.90;99.90;;;;;;4973265;28;20484;-87
2022/04/14 04:42:26;;;;;;;42.80;21.13;;;11.90;99.90;;;;;;4972150;28;20041;-87
2022/04/14 04:44:52;;;;;;;36.80;21.38;;;11.90;99.90;;;;;;4972028;28;20498;-87
2022/04/14 04:47:20;;;;;;;35.53;19.52;;;11.80;99.90;;;;;;4975887;28;20022;-85
2022/04/14 04:49:46;;;;;;;36.65;20.90;;;11.60;99.90;;;;;;4976277;28;20634;-84
2022/04/14 04:52:11;;;;;;;44.30;21.45;;;11.60;99.90;;;;;;4976188;28;20023;-87
2022/04/14 04:54:37;;;;;;;41.88;17.25;;;11.70;99.90;;;;;;4976157;28;20510;-87
2022/04/14 04:57:03;;;;;;;35.33;17.25;;;11.80;99.90;;;;;;4972816;28;20023;-87
2022/04/14 04:59:28;;;;;;;28.63;16.45;;;11.80;99.90;;;;;;4958772;28;20037;-88
2022/04/14 05:01:54;;;;;;;31.40;16.35;;;11.80;99.90;;;;;;4976178;28;20026;-87
2022/04/14 05:04:20;;;;;;;34.72;17.20;;;11.70;99.90;;;;;;4959150;28;20473;-87
2022/04/14 05:06:45;;;;;;;31.60;16.45;;;11.80;99.90;;;;;;4976086;28;20235;-87
2022/04/14 05:09:11;;;;;;;33.15;19.00;;;11.80;99.90;;;;;;4976348;28;20026;-86
2022/04/14 05:11:36;;;;;;;30.63;16.85;;;11.90;99.90;;;;;;4975600;28;20027;-88
2022/04/14 05:14:02;;;;;;;43.45;22.98;;;12.00;99.90;;;;;;4975982;28;20313;-88
2022/04/14 05:16:29;;;;;;;40.13;20.45;;;12.10;99.90;;;;;;4975823;28;20085;-84
2022/04/14 05:18:55;;;;;;;37.47;20.67;;;12.20;99.90;;;;;;4969698;28;20067;-87
2022/04/14 05:21:21;;;;;;;36.17;20.60;;;12.10;99.90;;;;;;4974028;28;20090;-88
2022/04/14 05:23:46;;;;;;;37.45;21.30;;;12.00;99.90;;;;;;4973336;28;20475;-88
2022/04/14 05:26:12;;;;;;;37.67;22.20;;;11.90;99.90;;;;;;4975979;28;20031;-87
2022/04/14 05:28:37;;;;;;;41.58;23.27;;;11.90;99.90;;;;;;4974351;28;20475;-87
2022/04/14 05:31:03;;;;;;;47.40;26.13;;;12.00;99.90;;;;;;4974386;28;20030;-88
2022/04/14 05:33:29;;;;;;;37.38;23.35;;;12.10;99.90;;;;;;4976022;28;20037;-85
2022/04/14 05:35:55;;;;;;;40.55;23.23;;;12.10;99.90;;;;;;4973397;28;20483;-88
2022/04/14 05:38:20;;;;;;;35.45;21.60;;;12.20;99.90;;;;;;4975721;28;20081;-87
2022/04/14 05:40:46;;;;;;;35.47;22.77;;;12.20;99.90;;;;;;4975631;28;20030;-86
2022/04/14 05:43:19;;;;;;;41.83;21.40;;;12.20;99.90;;;;;;4975444;28;20480;-86
2022/04/14 05:45:47;;;;;;;33.92;20.15;;;12.30;99.90;;;;;;4975614;28;20026;-87
2022/04/14 05:48:14;;;;;;;40.20;22.25;;;12.30;99.90;;;;;;4975068;28;20078;-86
2022/04/14 05:50:40;;;;;;;38.03;20.98;;;12.40;99.90;;;;;;4975609;28;20034;-88
2022/04/14 05:53:06;;;;;;;37.00;21.45;;;12.50;99.90;;;;;;4975468;28;20033;-87
2022/04/14 05:55:32;;;;;;;35.08;23.08;;;12.60;99.90;;;;;;4975370;28;20113;-86
2022/04/14 05:57:57;;;;;;;37.85;20.85;;;12.70;99.90;;;;;;4974391;28;20034;-88
2022/04/14 06:00:23;;;;;;;40.47;21.88;;;12.80;99.90;;;;;;4976802;28;20046;-87
2022/04/14 06:02:49;;;;;;;36.17;20.77;;;12.80;99.90;;;;;;4974589;28;20460;-86
2022/04/14 06:05:14;;;;;;;45.42;21.90;;;12.80;99.90;;;;;;4974512;28;20110;-86
2022/04/14 06:07:40;;;;;;;36.55;20.52;;;12.90;99.90;;;;;;4974743;28;20026;-86
2022/04/14 06:10:06;;;;;;;51.35;23.88;;;13.00;99.90;;;;;;4974735;28;20460;-87
2022/04/14 06:12:31;;;;;;;44.92;25.50;;;13.20;99.90;;;;;;4957182;28;20027;-89
2022/04/14 06:14:57;;;;;;;43.78;27.13;;;13.30;99.90;;;;;;4956441;28;20483;-86
2022/04/14 06:17:23;;;;;;;51.08;27.48;;;13.40;99.90;;;;;;4975090;28;20455;-86
2022/04/14 06:19:48;;;;;;;43.88;26.88;;;13.50;99.90;;;;;;4976564;28;20464;-87
2022/04/14 06:22:14;;;;;;;45.50;26.63;;;13.60;99.90;;;;;;4975040;28;20022;-87
2022/04/14 06:24:40;;;;;;;43.00;25.10;;;13.70;99.90;;;;;;4974828;28;20033;-88
2022/04/14 06:27:08;;;;;;;45.08;27.10;;;13.70;99.90;;;;;;4973906;28;20030;-86
2022/04/14 06:29:34;;;;;;;56.20;28.35;;;13.80;99.90;;;;;;4975168;28;20022;-87
2022/04/14 06:31:59;;;;;;;45.58;25.70;;;13.70;99.90;;;;;;4974679;28;20026;-86
2022/04/14 06:34:25;;;;;;;46.53;26.33;;;13.80;99.90;;;;;;4974788;28;20470;-87
2022/04/14 06:36:50;;;;;;;48.78;25.98;;;13.90;99.90;;;;;;4957283;28;20031;-88
2022/04/14 06:39:16;;;;;;;45.33;24.98;;;13.90;99.90;;;;;;4974522;28;20471;-88
2022/04/14 06:41:42;;;;;;;46.05;24.95;;;14.00;99.90;;;;;;4974729;28;20018;-87
2022/04/14 06:44:08;;;;;;;49.78;25.50;;;14.00;99.90;;;;;;4974519;28;20491;-87
2022/04/14 06:46:34;;;;;;;46.38;24.75;;;14.10;99.90;;;;;;4974858;28;20096;-87
2022/04/14 06:49:08;;;;;;;40.95;23.80;;;14.10;99.90;;;;;;4957144;28;20030;-87
2022/04/14 06:51:34;;;;;;;44.97;24.30;;;14.20;99.90;;;;;;4964936;28;20475;-87
2022/04/14 06:53:59;;;;;;;40.97;23.42;;;14.20;99.90;;;;;;4975540;28;20041;-88
2022/04/14 06:56:25;;;;;;;45.30;23.85;;;14.30;99.90;;;;;;4956544;28;20027;-88
2022/04/14 06:59:31;;;;;;;45.40;23.95;;;14.40;99.90;;;;;;4958165;28;20043;-88
2022/04/14 07:01:57;;;;;;;44.47;25.40;;;14.60;99.90;;;;;;4956718;28;20035;-89
2022/04/14 07:04:22;;;;;;;36.33;22.90;;;14.70;99.90;;;;;;4956032;28;20386;-88
2022/04/14 07:06:48;;;;;;;39.92;22.52;;;14.80;99.90;;;;;;4989098;28;20034;-89
2022/04/14 07:09:13;;;;;;;39.75;22.85;;;14.80;99.90;;;;;;4972131;28;20093;-89
2022/04/14 07:11:39;;;;;;;41.10;24.08;;;14.80;99.90;;;;;;4973288;28;20073;-89
2022/04/14 07:14:05;;;;;;;42.50;22.85;;;14.80;99.90;;;;;;4972042;28;20022;-89
2022/04/14 07:16:30;;;;;;;38.83;22.20;;;14.90;99.90;;;;;;4973820;28;20432;-88
2022/04/14 07:18:56;;;;;;;39.15;22.73;;;15.00;99.90;;;;;;4973682;28;20030;-88
2022/04/14 07:21:21;;;;;;;37.42;23.27;;;15.00;99.90;;;;;;4956027;28;20027;-89
2022/04/14 07:23:56;;;;;;;37.38;23.60;;;15.10;99.90;;;;;;4956308;28;20030;-86
2022/04/14 07:26:22;;;;;;;41.78;23.50;;;15.10;99.90;;;;;;4973260;28;20033;-88
2022/04/14 07:28:47;;;;;;;35.30;22.50;;;15.10;99.90;;;;;;4972403;28;20591;-89
2022/04/14 07:31:19;;;;;;;44.67;22.92;;;15.00;99.90;;;;;;4972047;28;20077;-88
2022/04/14 07:33:45;;;;;;;41.60;22.85;;;15.00;99.90;;;;;;4971982;28;20027;-88
2022/04/14 07:36:12;;;;;;;40.30;22.90;;;14.80;99.90;;;;;;4972973;28;20037;-88
2022/04/14 07:38:38;;;;;;;36.92;22.08;;;14.70;99.90;;;;;;4972282;28;20098;-88
2022/04/14 07:41:05;;;;;;;36.13;22.08;;;14.80;99.90;;;;;;4972637;28;20106;-90
2022/04/14 07:43:32;;;;;;;41.58;23.50;;;15.00;99.90;;;;;;4955402;28;20035;-88
2022/04/14 07:45:57;;;;;;;34.55;20.75;;;15.10;99.90;;;;;;4972921;28;20492;-87
2022/04/14 07:48:51;;;;;;;35.65;20.35;;;15.40;99.90;;;;;;4955254;28;20147;-87
2022/04/14 07:51:17;;;;;;;36.50;21.50;;;15.60;99.90;;;;;;4972538;28;20467;-88
2022/04/14 07:53:53;;;;;;;34.40;20.33;;;15.70;99.90;;;;;;4972904;28;20050;-88
2022/04/14 07:56:22;;;;;;;42.88;21.58;;;15.90;99.90;;;;;;4955230;28;20035;-89
2022/04/14 07:58:48;;;;;;;40.75;22.15;;;16.00;99.90;;;;;;4972952;28;20023;-88
2022/04/14 08:04:38;;;;;;;33.33;19.75;;;15.90;99.90;;;;;;4973138;28;20041;-89
2022/04/14 08:07:04;;;;;;;36.55;20.35;;;16.10;99.90;;;;;;4972995;28;20045;-89
2022/04/14 08:09:30;;;;;;;38.65;19.00;;;16.20;99.90;;;;;;4955644;28;20026;-87
2022/04/14 08:11:55;;;;;;;34.63;19.13;;;16.40;99.90;;;;;;4955210;28;20027;-88
2022/04/14 08:14:21;;;;;;;33.45;19.50;;;16.60;99.90;;;;;;4972718;28;20073;-89
2022/04/14 08:16:46;;;;;;;33.58;19.33;;;16.90;99.90;;;;;;4976291;28;20031;-89
2022/04/14 08:19:12;;;;;;;34.53;17.95;;;17.10;99.70;;;;;;4972831;28;20199;-88
2022/04/14 08:21:37;;;;;;;34.33;19.90;;;17.10;99.10;;;;;;4974361;28;20443;-89
2022/04/14 08:24:03;;;;;;;29.35;17.63;;;17.00;98.60;;;;;;4975191;28;20022;-89
2022/04/14 08:34:20;;;;;;;35.15;16.58;;;17.30;96.90;;;;;;5013015;28;20516;-88
2022/04/14 08:36:46;;;;;;;33.15;17.15;;;17.50;95.80;;;;;;4935650;29;20039;-88
2022/04/14 08:39:11;;;;;;;33.88;17.92;;;17.70;94.30;;;;;;4928447;29;20028;-86
2022/04/14 08:41:42;;;;;;;34.67;17.15;;;17.80;93.00;;;;;;4960151;28;20034;-87
2022/04/14 08:44:10;;;;;;;29.63;17.08;;;17.70;92.90;;;;;;5002570;28;20026;-86
2022/04/14 08:46:38;;;;;;;29.95;18.75;;;17.70;92.60;;;;;;4980073;28;20046;-86
2022/04/14 08:49:04;;;;;;;29.27;17.85;;;17.70;92.60;;;;;;4999295;28;20038;-88
2022/04/14 08:51:36;;;;;;;27.27;17.17;;;17.60;93.10;;;;;;4980464;28;20494;-87
2022/04/14 08:54:02;;;;;;;30.77;18.13;;;17.60;94.30;;;;;;4980637;28;20045;-88
2022/04/14 08:56:29;;;;;;;35.10;16.33;;;17.80;93.60;;;;;;4998412;28;20058;-88
2022/04/14 08:58:56;;;;;;;30.50;17.10;;;17.90;92.90;;;;;;4996360;28;20042;-87
2022/04/14 09:01:26;;;;;;;29.98;18.13;;;17.80;92.10;;;;;;4977550;28;20375;-88
2022/04/14 09:03:58;;;;;;;25.88;16.90;;;17.60;92.40;;;;;;4978480;28;20109;-88
2022/04/14 09:06:27;;;;;;;28.98;16.38;;;17.30;93.40;;;;;;4978014;28;20380;-87
2022/04/14 09:08:53;;;;;;;27.65;16.70;;;17.20;94.30;;;;;;4977883;28;20022;-87
2022/04/14 09:11:18;;;;;;;27.08;16.67;;;17.20;95.00;;;;;;4977697;28;20029;-87
2022/04/14 09:13:45;;;;;;;28.17;17.83;;;17.40;94.40;;;;;;4995933;28;20026;-88
2022/04/14 09:16:11;;;;;;;23.30;15.65;;;17.40;93.70;;;;;;4995774;28;20130;-88
2022/04/14 09:18:36;;;;;;;23.75;15.63;;;17.70;94.30;;;;;;4995386;28;20023;-87
2022/04/14 09:21:06;;;;;;;31.10;16.02;;;18.10;92.70;;;;;;4977124;28;20116;-88
2022/04/14 09:23:32;;;;;;;23.20;15.18;;;18.40;90.50;;;;;;4995228;28;20026;-88
2022/04/14 09:26:06;;;;;;;22.33;15.05;;;18.80;89.80;;;;;;4977522;28;20026;-88
2022/04/14 09:28:32;;;;;;;27.42;15.55;;;18.80;87.70;;;;;;4994660;28;20030;-89
2022/04/14 09:30:57;;;;;;;29.13;16.40;;;19.00;86.30;;;;;;4977219;28;20461;-90
2022/04/14 09:33:23;;;;;;;27.10;17.10;;;18.50;85.90;;;;;;4966632;28;20186;-88
2022/04/14 09:36:16;;;;;;;27.75;16.58;;;18.20;87.60;;;;;;4975091;28;20062;-88
2022/04/14 09:39:03;;;;;;;25.20;15.95;;;18.30;89.10;;;;;;4958435;28;20494;-87
2022/04/14 09:41:42;;;;;;;26.75;15.70;;;18.70;87.80;;;;;;4988287;28;20041;-88
2022/04/14 09:44:08;;;;;;;25.75;15.48;;;18.90;86.20;;;;;;4977704;28;20363;-86
2022/04/14 09:46:36;;;;;;;32.85;15.80;;;19.00;84.20;;;;;;4977063;28;20116;-87
2022/04/14 09:49:35;;;;;;;27.58;16.02;;;18.90;84.70;;;;;;5003471;23;20062;-90
2022/04/14 09:52:12;;;;;;;24.70;14.65;;;18.80;84.60;;;;;;4978267;28;20054;-90
2022/04/14 09:54:48;;;;;;;27.33;13.98;;;18.60;84.90;;;;;;4975717;28;20023;-88
2022/04/14 09:57:27;;;;;;;23.80;14.77;;;18.90;85.60;;;;;;4975503;28;20035;-90
2022/04/14 09:59:59;;;;;;;31.33;15.45;;;19.30;82.90;;;;;;4953683;28;20046;-89
2022/04/14 10:02:26;;;;;;;32.25;14.70;;;19.50;80.60;;;;;;4958202;28;20033;-89
2022/04/14 10:04:52;;;;;;;21.35;12.30;;;19.30;79.80;;;;;;4975215;28;20027;-90
2022/04/14 10:07:20;;;;;;;25.55;14.02;;;19.50;81.50;;;;;;4957451;28;20058;-90
2022/04/14 10:09:50;;;;;;;26.13;12.55;;;19.60;78.40;;;;;;4958022;28;20022;-90
2022/04/14 10:12:42;;;;;;;19.15;12.40;;;19.70;78.70;;;;;;4975270;28;20019;-89
2022/04/14 10:15:12;;;;;;;19.02;11.77;;;20.10;76.40;;;;;;4957793;28;20126;-88
2022/04/14 10:17:40;;;;;;;16.52;11.20;;;20.30;74.00;;;;;;4975264;28;20070;-89
2022/04/14 10:20:08;;;;;;;20.48;10.88;;;20.20;73.20;;;;;;4988886;28;20043;-89
2022/04/14 10:22:42;;;;;;;19.65;11.30;;;20.10;74.30;;;;;;4990102;28;20026;-90
2022/04/14 10:25:12;;;;;;;21.80;11.63;;;20.20;73.40;;;;;;4955116;28;20039;-89
2022/04/14 10:27:42;;;;;;;20.58;10.88;;;20.20;72.80;;;;;;4937979;29;20110;-90
2022/04/14 10:30:15;;;;;;;20.75;11.60;;;20.40;71.70;;;;;;4937643;28;20126;-89
2022/04/14 10:32:45;;;;;;;19.45;10.52;;;20.30;70.60;;;;;;4938439;29;20035;-88
2022/04/14 10:35:16;;;;;;;18.63;10.57;;;19.90;71.40;;;;;;4955292;28;20027;-89
2022/04/14 10:37:46;;;;;;;15.98;11.15;;;19.80;72.30;;;;;;4938238;29;20035;-90
2022/04/14 10:40:16;;;;;;;16.75;9.95;;;19.50;72.50;;;;;;4940099;28;20058;-89
2022/04/14 10:42:51;;;;;;;17.38;9.70;;;19.40;73.40;;;;;;4975051;28;20081;-90
2022/04/14 10:45:23;;;;;;;17.48;8.45;;;19.70;72.60;;;;;;4956633;28;20030;-89
2022/04/14 10:48:09;;;;;;;18.98;10.20;;;20.00;73.10;;;;;;4957284;28;20050;-91
2022/04/14 10:50:41;;;;;;;21.92;9.77;;;20.30;71.70;;;;;;4957324;28;20106;-89
2022/04/14 10:53:28;;;;;;;22.38;9.52;;;20.60;69.10;;;;;;4957632;28;20034;-90
2022/04/14 10:55:54;;;;;;;23.10;10.80;;;20.20;69.60;;;;;;4956733;28;20026;-90
2022/04/14 10:58:26;;;;;;;18.60;9.63;;;20.10;70.00;;;;;;4951318;28;20019;-89
2022/04/14 11:00:52;;;;;;;22.48;11.13;;;20.30;70.30;;;;;;4955425;29;20405;-89
2022/04/14 11:03:44;;;;;;;16.23;9.65;;;20.20;68.90;;;;;;4955195;28;20029;-89
2022/04/14 11:06:28;;;;;;;22.73;10.23;;;19.80;71.30;;;;;;4938188;29;20023;-89
2022/04/14 11:08:54;;;;;;;14.50;10.45;;;20.10;70.70;;;;;;4954744;28;20020;-89
2022/04/14 11:11:20;;;;;;;15.48;8.90;;;20.40;69.10;;;;;;4954444;28;20089;-88
2022/04/14 11:13:55;;;;;;;19.17;9.95;;;20.40;69.50;;;;;;4937700;29;20023;-88
2022/04/14 11:16:41;;;;;;;15.57;8.90;;;20.40;69.60;;;;;;4954559;28;20026;-88
2022/04/14 11:19:24;;;;;;;20.05;9.20;;;20.60;69.00;;;;;;4953456;28;20487;-89
2022/04/14 11:22:08;;;;;;;23.02;10.52;;;20.80;67.10;;;;;;4973562;28;20022;-88
2022/04/14 11:24:36;;;;;;;14.00;8.27;;;20.80;67.10;;;;;;4973912;28;20031;-89
2022/04/14 11:27:15;;;;;;;15.43;8.23;;;20.80;66.90;;;;;;4972379;28;20027;-88
2022/04/14 11:29:59;;;;;;;;;;;;;;;;;;;;;
2022/04/14 11:32:36;;;;;;;16.42;7.75;;;20.80;67.50;;;;;;4959106;28;20023;-89
2022/04/14 11:35:20;;;;;;;16.17;7.35;;;20.90;66.50;;;;;;4973521;28;20031;-89
2022/04/14 11:37:52;;;;;;;15.98;7.68;;;20.90;67.00;;;;;;4956101;28;20070;-91
2022/04/14 11:40:26;;;;;;;17.08;8.35;;;20.90;65.80;;;;;;4951254;28;20506;-90
2022/04/14 11:43:06;;;;;;;18.10;8.43;;;20.90;66.20;;;;;;4954752;29;20488;-88
2022/04/14 11:48:31;;;;;;;15.98;8.27;;;20.90;66.20;;;;;;4945053;28;20038;-89
2022/04/14 11:51:18;;;;;;;18.52;8.50;;;20.50;66.10;;;;;;4964272;28;20034;-89
2022/04/14 11:54:13;;;;;;;13.93;7.38;;;20.40;66.80;;;;;;4955555;28;20046;-89
2022/04/14 11:56:57;;;;;;;13.65;8.18;;;20.60;66.40;;;;;;4956475;28;20395;-89
2022/04/14 11:59:54;;;;;;;14.75;8.50;;;20.80;65.90;;;;;;4958663;28;20031;-89
2022/04/14 12:02:24;;;;;;;11.70;8.00;;;20.40;66.90;;;;;;4958471;29;20034;-89
2022/04/14 12:04:52;;;;;;;15.90;8.00;;;19.80;68.70;;;;;;4940897;28;20126;-90
2022/04/14 12:07:19;;;;;;;16.85;8.43;;;19.80;69.50;;;;;;4960894;28;20018;-89
2022/04/14 12:09:58;;;;;;;13.85;6.05;;;19.80;69.40;;;;;;4960373;28;20081;-89
2022/04/14 12:12:24;;;;;;;16.05;7.53;;;19.90;69.60;;;;;;4959568;28;20118;-90
2022/04/14 12:14:52;;;;;;;14.48;7.18;;;20.20;68.80;;;;;;4975636;28;20404;-90
2022/04/14 12:17:23;;;;;;;10.88;6.53;;;20.40;68.00;;;;;;4958566;28;20399;-91
2022/04/14 12:19:59;;;;;;;12.07;7.03;;;20.60;67.50;;;;;;4974873;28;20027;-90
2022/04/14 12:22:27;;;;;;;11.27;6.43;;;20.70;65.90;;;;;;4976867;28;20034;-90
2022/04/14 12:24:57;;;;;;;14.73;6.57;;;20.80;66.50;;;;;;4957654;28;20035;-90
2022/04/14 12:27:34;;;;;;;10.40;7.00;;;21.20;65.60;;;;;;4975205;28;20126;-90
2022/04/14 12:30:13;;;;;;;14.43;6.88;;;21.50;63.70;;;;;;4977793;28;20092;-90
2022/04/14 12:32:39;;;;;;;17.27;5.97;;;21.40;63.70;;;;;;4977624;28;20033;-90
2022/04/14 12:35:08;;;;;;;11.40;5.65;;;21.50;63.70;;;;;;4976146;28;20117;-90
2022/04/14 12:37:39;;;;;;;11.40;6.78;;;21.90;63.00;;;;;;4977046;28;20046;-90
2022/04/14 12:40:15;;;;;;;12.88;6.75;;;22.20;60.80;;;;;;4977314;28;20421;-91
2022/04/14 12:42:44;;;;;;;13.80;7.10;;;22.20;60.70;;;;;;4976136;28;20348;-90
2022/04/14 12:45:16;;;;;;;15.38;6.07;;;22.00;60.60;;;;;;4977080;28;20027;-89
2022/04/14 12:47:46;;;;;;;11.88;6.78;;;22.00;61.10;;;;;;4977019;28;20031;-90
2022/04/14 12:50:18;;;;;;;13.95;6.53;;;21.60;61.40;;;;;;4975561;28;20027;-90
2022/04/14 12:52:53;;;;;;;11.13;6.35;;;21.10;63.30;;;;;;4976786;28;20027;-91
2022/04/14 12:55:28;;;;;;;14.10;6.72;;;20.90;64.20;;;;;;4975533;28;20487;-89